createdAt,value
2022-09-09T00:05:03.564Z,1004
2022-09-09T00:15:03.477Z,1004
2022-09-09T00:25:03.562Z,1004
2022-09-09T00:35:03.476Z,1004
2022-09-09T00:45:03.546Z,1004
2022-09-09T00:55:03.473Z,1004
2022-09-09T01:05:03.554Z,1004
2022-09-09T01:15:03.675Z,1004
2022-09-09T01:25:03.541Z,1004
2022-09-09T01:35:03.664Z,1004
2022-09-09T01:45:03.534Z,1004
2022-09-09T01:55:03.664Z,1004
2022-09-09T02:05:03.547Z,1004
2022-09-09T02:15:03.666Z,1004
2022-09-09T02:25:03.724Z,1004
2022-09-09T02:35:03.646Z,1004
2022-09-09T02:45:03.723Z,1004
2022-09-09T02:55:03.644Z,1004
2022-09-09T03:05:03.725Z,1004
2022-09-09T03:15:03.643Z,1004
2022-09-09T03:25:03.718Z,1004
2022-09-09T03:35:03.647Z,1004
2022-09-09T03:45:03.711Z,1004
2022-09-09T03:55:03.847Z,1004
2022-09-09T04:05:03.699Z,1004
2022-09-09T04:15:03.827Z,1004
2022-09-09T04:25:03.709Z,1004
2022-09-09T04:35:03.833Z,1004
2022-09-09T04:45:03.696Z,1004
2022-09-09T04:55:03.818Z,1004
2022-09-09T05:05:03.700Z,1004
2022-09-09T05:15:03.810Z,1004
2022-09-09T05:25:03.898Z,1004
2022-09-09T05:35:03.817Z,1004
2022-09-09T05:45:03.892Z,1004
2022-09-09T05:55:03.798Z,1004
2022-09-09T06:05:03.874Z,1004
2022-09-09T06:15:03.803Z,1005
2022-09-09T06:25:03.877Z,1005
2022-09-09T06:35:04.022Z,1005
2022-09-09T06:45:03.870Z,1005
2022-09-09T06:55:03.996Z,1006
2022-09-09T07:05:03.867Z,1006
2022-09-09T07:15:03.991Z,1006
2022-09-09T07:25:03.860Z,1006
2022-09-09T07:35:03.998Z,1006
2022-09-09T07:45:03.852Z,1006
2022-09-09T07:55:03.985Z,1006
2022-09-09T08:05:04.057Z,1006
2022-09-09T08:15:03.978Z,1007
2022-09-09T08:25:04.077Z,1007
2022-09-09T08:35:07.982Z,1007
2022-09-09T08:45:04.054Z,1007
2022-09-09T08:55:03.978Z,1008
2022-09-09T09:05:04.177Z,1008
2022-09-09T09:15:04.172Z,1008
2022-09-09T09:25:04.061Z,1008
2022-09-09T09:35:04.160Z,1008
2022-09-09T09:45:04.040Z,1009
2022-09-09T09:55:07.664Z,1009
2022-09-09T10:05:04.084Z,1009
2022-09-09T10:15:04.223Z,1009
2022-09-09T10:25:04.112Z,1009
2022-09-09T10:35:04.221Z,1009
2022-09-09T10:45:04.103Z,1009
2022-09-09T10:55:04.190Z,1009
2022-09-09T11:05:04.083Z,1010
2022-09-09T11:15:04.404Z,1010
2022-09-09T11:25:04.280Z,1010
2022-09-09T11:35:04.185Z,1010
2022-09-09T11:45:04.262Z,1010
2022-09-09T11:55:04.233Z,1010
2022-09-09T12:05:04.351Z,1010
2022-09-09T12:15:04.200Z,1010
2022-09-09T12:25:04.266Z,1011
2022-09-09T12:35:04.204Z,1011
2022-09-09T12:45:04.267Z,1011
2022-09-09T12:55:04.196Z,1011
2022-09-09T13:05:04.275Z,1011
2022-09-09T13:15:04.392Z,1011
2022-09-09T13:25:04.257Z,1011
2022-09-09T13:35:04.378Z,1011
2022-09-09T13:45:04.259Z,1012
2022-09-09T13:55:04.378Z,1012
2022-09-09T14:05:04.243Z,1012
2022-09-09T14:15:04.366Z,1012
2022-09-09T14:25:04.451Z,1013
2022-09-09T14:35:04.369Z,1013
2022-09-09T14:45:04.446Z,1013
2022-09-09T14:55:04.363Z,1013
2022-09-09T15:05:04.430Z,1014
2022-09-09T15:15:04.366Z,1014
2022-09-09T15:25:04.446Z,1014
2022-09-09T15:35:04.361Z,1014
2022-09-09T15:45:04.426Z,1014
2022-09-09T15:55:04.664Z,1014
2022-09-09T16:05:04.439Z,1014
2022-09-09T16:15:04.391Z,1014
2022-09-09T16:25:04.592Z,1014
2022-09-09T16:35:04.587Z,1014
2022-09-09T16:45:04.485Z,1014
2022-09-09T16:55:04.591Z,1014
2022-09-09T17:05:04.492Z,1014
2022-09-09T17:15:04.827Z,1014
2022-09-09T17:25:04.727Z,1014
2022-09-09T17:35:04.570Z,1014
2022-09-09T17:45:04.460Z,1013
2022-09-09T17:55:04.584Z,1013
2022-09-09T18:05:04.655Z,1013
2022-09-09T18:15:04.562Z,1013
2022-09-09T18:25:04.631Z,1012
2022-09-09T18:35:04.561Z,1012
2022-09-09T18:45:04.784Z,1012
2022-09-09T18:55:04.577Z,1012
2022-09-09T19:05:04.736Z,1012
2022-09-09T19:15:04.626Z,1012
2022-09-09T19:25:04.695Z,1012
2022-09-09T19:35:04.821Z,1012
2022-09-09T19:45:04.684Z,1012
2022-09-09T19:55:04.801Z,1012
2022-09-09T20:05:04.675Z,1012
2022-09-09T20:15:04.792Z,1012
2022-09-09T20:25:04.672Z,1012
2022-09-09T20:35:04.799Z,1012
2022-09-09T20:45:04.656Z,1012
2022-09-09T20:55:04.797Z,1012
2022-09-09T21:05:04.859Z,1013
2022-09-09T21:15:04.802Z,1013
2022-09-09T21:25:04.867Z,1013
2022-09-09T21:35:04.779Z,1013
2022-09-09T21:45:04.852Z,1013
2022-09-09T21:55:04.782Z,1013
2022-09-09T22:05:05.115Z,1013
2022-09-09T22:15:04.774Z,1013
2022-09-09T22:25:04.834Z,1013
2022-09-09T22:35:04.956Z,1013
2022-09-09T22:45:04.850Z,1013
2022-09-09T22:55:04.992Z,1013
2022-09-09T23:05:04.858Z,1014
2022-09-09T23:15:04.983Z,1014
2022-09-09T23:25:04.857Z,1014
2022-09-09T23:35:05.001Z,1014
2022-09-09T23:45:04.855Z,1014
2022-09-09T23:55:04.974Z,1014
